Time;durP1;ratioP1;P1;durP2;ratioP2;P2;SDS_P1;SDS_P2;PMS_P1;PMS_P2;Temp;Humidity;BMP_temperature;BMP_pressure;BME280_temperature;BME280_humidity;BME280_pressure;Samples;Min_cycle;Max_cycle;Signal;HPM_P1;HPM_P2
2024/01/09 00:02:42;;;;;;;13.57;4.38;;;;;;;-6.10;69.21;101036.03;12213276;19;20007;-85
2024/01/09 00:06:44;;;;;;;10.98;5.97;;;;;;;-6.16;69.12;101038.31;12195860;19;20150;-86
2024/01/09 00:10:46;;;;;;;11.45;5.28;;;;;;;-6.15;69.45;101034.69;12206747;19;20041;-85
2024/01/09 00:14:48;;;;;;;14.63;4.15;;;;;;;-6.10;69.55;101040.56;12211545;19;20027;-86
2024/01/09 00:18:53;;;;;;;12.73;5.28;;;;;;;-6.11;69.21;101034.34;12189314;19;20015;-86
2024/01/09 00:22:56;;;;;;;17.58;5.07;;;;;;;-6.08;69.23;101036.81;12217172;19;20855;-86
2024/01/09 00:26:58;;;;;;;11.70;4.05;;;;;;;-6.08;69.03;101036.81;12217031;19;20006;-84
2024/01/09 00:31:03;;;;;;;16.38;5.15;;;;;;;-6.11;69.53;101039.72;12190020;19;20010;-84
2024/01/09 00:35:06;;;;;;;11.02;4.90;;;;;;;-6.10;69.02;101030.69;12214709;19;20589;-84
2024/01/09 00:39:11;;;;;;;9.50;5.25;;;;;;;-6.06;69.18;101026.81;12215928;19;20015;-86
2024/01/09 00:43:13;;;;;;;9.98;4.63;;;;;;;-6.08;69.89;101031.44;12189312;19;20010;-84
2024/01/09 00:47:15;;;;;;;11.38;5.75;;;;;;;-6.09;69.50;101028.88;12215535;19;20066;-85
2024/01/09 00:51:18;;;;;;;9.02;4.57;;;;;;;-6.12;70.32;101027.28;12215959;19;20036;-85
2024/01/09 00:55:20;;;;;;;12.07;5.30;;;;;;;-6.10;70.37;101025.31;12194183;19;20058;-84
2024/01/09 00:59:23;;;;;;;14.27;4.80;;;;;;;-6.12;69.93;101024.59;12215040;19;20070;-86
2024/01/09 01:03:25;;;;;;;10.77;4.95;;;;;;;-6.09;69.94;101028.88;12190522;19;20035;-84
2024/01/09 01:07:27;;;;;;;11.55;5.35;;;;;;;-6.14;70.39;101014.94;12232690;19;20015;-85
2024/01/09 01:11:30;;;;;;;10.85;5.03;;;;;;;-6.13;70.33;101027.38;12216258;19;20018;-85
2024/01/09 01:15:36;;;;;;;12.77;5.22;;;;;;;-6.11;70.01;101033.50;12196232;19;20007;-87
2024/01/09 01:19:39;;;;;;;11.73;4.38;;;;;;;-6.14;70.64;101044.44;12261287;19;20006;-85
2024/01/09 01:23:42;;;;;;;;;;;;;;;-6.13;70.89;101044.31;12223334;19;20006;-84
2024/01/09 01:27:44;;;;;;;9.57;3.63;;;;;;;-6.16;71.10;101043.69;12195973;19;20379;-85
2024/01/09 01:31:46;;;;;;;10.25;4.47;;;;;;;-6.14;71.22;101044.44;12212402;19;20297;-86
2024/01/09 01:35:48;;;;;;;15.85;5.57;;;;;;;-6.17;71.32;101037.47;12211795;19;20065;-85
2024/01/09 01:39:51;;;;;;;8.82;4.03;;;;;;;-6.16;71.75;101041.00;12183557;19;20106;-86
2024/01/09 01:43:52;;;;;;;11.35;4.68;;;;;;;-6.14;71.77;101045.31;12208203;19;20006;-86
2024/01/09 01:47:55;;;;;;;11.70;5.93;;;;;;;-6.16;71.73;101039.19;12211459;19;20014;-85
2024/01/09 01:51:58;;;;;;;8.93;4.15;;;;;;;-6.17;71.53;101042.84;12194811;19;20011;-86
2024/01/09 01:56:04;;;;;;;8.95;4.47;;;;;;;-6.19;72.01;101047.47;12219370;19;20014;-86
2024/01/09 02:00:07;;;;;;;13.40;4.68;;;;;;;-6.16;72.07;101055.28;12245927;19;20051;-86
2024/01/09 02:04:13;;;;;;;10.07;4.32;;;;;;;-6.16;72.57;101038.31;12238135;19;20010;-87
2024/01/09 02:08:15;;;;;;;11.82;5.03;;;;;;;-6.22;72.15;101040.50;12240047;19;20011;-85
2024/01/09 02:12:19;;;;;;;17.08;6.32;;;;;;;-6.25;72.86;101035.34;12210836;19;20015;-85
2024/01/09 02:16:22;;;;;;;13.38;4.38;;;;;;;-6.28;72.99;101032.88;12189017;19;20010;-86
2024/01/09 02:20:25;;;;;;;10.57;4.47;;;;;;;-6.28;73.12;101038.25;12206435;19;20014;-84
2024/01/09 02:24:28;;;;;;;8.75;4.35;;;;;;;-6.32;73.18;101026.03;12182662;19;20042;-85
2024/01/09 02:28:42;;;;;;;12.80;4.22;;;;;;;-6.34;73.74;101029.81;12210361;19;20031;-84
2024/01/09 02:32:44;;;;;;;10.65;3.80;;;;;;;-6.37;74.04;101033.56;12214342;19;20015;-85
2024/01/09 02:36:47;;;;;;;14.18;4.88;;;;;;;-6.37;73.77;101028.19;12240858;19;20021;-87
2024/01/09 02:40:49;;;;;;;11.23;4.35;;;;;;;-6.36;74.06;101035.28;12272430;19;20031;-86
2024/01/09 02:44:54;;;;;;;10.80;4.85;;;;;;;-6.39;74.41;101032.84;12262870;19;20343;-85
2024/01/09 02:48:57;;;;;;;12.77;4.68;;;;;;;-6.40;74.51;101024.88;12238228;19;20007;-84
2024/01/09 02:53:00;;;;;;;7.40;3.22;;;;;;;-6.45;75.33;101028.75;12260841;19;20018;-86
2024/01/09 02:57:02;;;;;;;11.77;4.82;;;;;;;-6.51;75.40;101023.00;12255479;19;20019;-87
2024/01/09 03:01:04;;;;;;;11.15;4.57;;;;;;;-6.50;75.64;101030.06;12229350;19;20011;-87
2024/01/09 03:05:06;;;;;;;9.55;4.25;;;;;;;-6.58;76.60;101025.22;12255512;19;20025;-87
2024/01/09 03:09:11;;;;;;;6.20;3.15;;;;;;;-6.64;77.93;101025.66;12256143;19;20035;-88
2024/01/09 03:13:16;;;;;;;8.52;3.83;;;;;;;-6.64;77.75;101025.66;12230538;19;20010;-86
2024/01/09 03:17:19;;;;;;;12.90;4.82;;;;;;;-6.72;78.58;101028.91;12215580;19;20007;-85
2024/01/09 03:21:21;;;;;;;10.32;4.40;;;;;;;-6.70;78.96;101028.78;12214803;19;20018;-85
2024/01/09 03:25:26;;;;;;;10.00;5.47;;;;;;;-6.68;78.84;101018.81;12192013;19;20509;-85
2024/01/09 03:29:27;;;;;;;12.32;4.85;;;;;;;-6.68;79.15;101016.16;12206314;19;20084;-85
2024/01/09 03:33:29;;;;;;;11.85;4.38;;;;;;;-6.67;78.65;101015.16;12195907;19;20011;-85
2024/01/09 03:37:32;;;;;;;11.35;4.30;;;;;;;-6.71;79.45;101017.22;12249653;19;20015;-88
2024/01/09 03:41:35;;;;;;;12.52;4.68;;;;;;;-6.73;79.16;101011.09;12225146;19;20168;-86
2024/01/09 03:45:37;;;;;;;8.27;5.68;;;;;;;-6.76;79.81;101015.81;12195297;19;20021;-86
2024/01/09 03:49:39;;;;;;;10.15;5.18;;;;;;;-6.78;80.69;101015.06;12218913;19;20010;-84
2024/01/09 03:53:40;;;;;;;12.98;4.90;;;;;;;-6.80;80.89;101006.31;12220741;19;20011;-86
2024/01/09 03:57:44;;;;;;;11.15;4.65;;;;;;;-6.84;81.67;101002.09;12239899;19;20015;-87
2024/01/09 04:01:46;;;;;;;9.38;4.55;;;;;;;-6.91;82.40;101007.91;12265892;19;20037;-87
2024/01/09 04:05:48;;;;;;;15.85;5.65;;;;;;;-6.91;82.34;101007.91;12259907;19;20007;-87
2024/01/09 04:09:50;;;;;;;15.27;5.25;;;;;;;-6.90;82.28;101006.97;12237164;19;20025;-85
2024/01/09 04:13:52;;;;;;;13.40;5.00;;;;;;;-6.89;82.17;101013.16;12255151;19;20158;-85
2024/01/09 04:17:53;;;;;;;17.73;6.10;;;;;;;-6.89;82.38;101011.34;12224889;19;20007;-86
2024/01/09 04:21:58;;;;;;;11.23;6.40;;;;;;;-6.90;82.67;101014.13;12196597;19;20485;-86
2024/01/09 04:26:00;;;;;;;14.18;6.43;;;;;;;-6.91;83.07;101021.31;12216580;19;20035;-85
2024/01/09 04:30:02;;;;;;;13.20;5.30;;;;;;;-6.93;82.76;101017.91;12215271;19;20066;-85
2024/01/09 04:34:04;;;;;;;13.43;5.32;;;;;;;-6.94;83.18;101024.19;12191267;19;20081;-85
2024/01/09 04:38:08;;;;;;;12.88;4.63;;;;;;;-6.96;82.92;101015.44;12213830;19;20997;-86
2024/01/09 04:42:10;;;;;;;13.13;5.63;;;;;;;-6.96;82.93;101017.22;12214135;19;20017;-87
2024/01/09 04:46:12;;;;;;;10.68;4.75;;;;;;;-6.97;82.61;101019.06;12191376;19;20021;-85
2024/01/09 04:50:14;;;;;;;11.55;4.80;;;;;;;-6.98;82.81;101024.53;12212035;19;20011;-85
2024/01/09 04:54:18;;;;;;;11.82;5.43;;;;;;;-6.96;82.65;101017.22;12212775;19;20015;-87
2024/01/09 04:58:20;;;;;;;16.40;5.43;;;;;;;-6.94;82.88;101028.69;12190952;19;20026;-87
2024/01/09 05:02:21;;;;;;;16.00;4.78;;;;;;;-6.95;82.87;101029.69;12212040;19;20230;-85
2024/01/09 05:06:27;;;;;;;15.25;5.07;;;;;;;-6.99;82.99;101020.13;12191171;19;20003;-85
2024/01/09 05:10:30;;;;;;;11.18;4.72;;;;;;;-7.04;82.95;101028.50;12235375;19;20038;-87
2024/01/09 05:14:32;;;;;;;11.80;5.00;;;;;;;-7.07;83.67;101017.16;12266801;19;20007;-89
2024/01/09 05:18:35;;;;;;;9.80;4.07;;;;;;;-7.13;84.76;101011.25;12233408;19;20466;-86
2024/01/09 05:22:37;;;;;;;;;;;;;;;-7.11;84.86;101013.78;12215349;19;20007;-84
2024/01/09 05:26:41;;;;;;;19.23;5.57;;;;;;;-7.16;84.76;101022.16;12212115;19;20389;-85
2024/01/09 05:30:43;;;;;;;9.48;5.28;;;;;;;-7.22;84.78;101011.03;12187136;19;20129;-85
2024/01/09 05:34:45;;;;;;;;;;;;;;;-7.21;85.17;101021.63;12210503;19;20010;-85
2024/01/09 05:38:46;;;;;;;9.48;4.32;;;;;;;-7.20;84.56;101026.03;12209886;19;20003;-86
2024/01/09 05:42:54;;;;;;;10.93;4.78;;;;;;;-7.19;84.54;101010.81;12185607;19;20010;-84
2024/01/09 05:46:56;;;;;;;11.43;4.28;;;;;;;-7.18;84.67;101009.84;12209394;19;20011;-85
2024/01/09 05:50:58;;;;;;;8.48;3.80;;;;;;;-7.16;84.23;101010.59;12206160;19;20010;-85
2024/01/09 05:55:00;;;;;;;;;;;;;;;-7.17;83.99;101008.88;12185702;19;20513;-85
2024/01/09 05:59:02;;;;;;;6.75;3.78;;;;;;;-7.17;84.56;101006.19;12207185;19;20019;-86
2024/01/09 06:03:11;;;;;;;11.32;4.68;;;;;;;-7.14;84.23;101014.00;12207443;19;20637;-85
2024/01/09 06:07:14;;;;;;;10.77;4.22;;;;;;;-7.13;84.50;101021.09;12186763;19;20501;-85
2024/01/09 06:11:17;;;;;;;11.65;4.63;;;;;;;-7.17;83.91;101025.81;12206638;19;20014;-86
2024/01/09 06:15:20;;;;;;;13.30;4.95;;;;;;;-7.25;84.72;101021.97;12207256;19;20894;-84
2024/01/09 06:19:22;;;;;;;9.60;4.60;;;;;;;-7.29;85.02;101015.06;12186950;19;20014;-85
2024/01/09 06:23:25;;;;;;;14.40;5.45;;;;;;;-7.29;85.26;101021.28;12205172;19;20003;-86
2024/01/09 06:27:28;;;;;;;15.63;4.43;;;;;;;-7.27;85.18;101021.19;12186853;19;20030;-84
2024/01/09 06:31:30;;;;;;;8.32;4.20;;;;;;;-7.30;84.85;101030.28;12205408;19;20011;-85
2024/01/09 06:35:34;;;;;;;14.73;5.32;;;;;;;-7.29;84.54;101021.28;12210627;19;20006;-86
2024/01/09 06:39:36;;;;;;;10.40;4.43;;;;;;;-7.27;83.74;101022.03;12227039;19;20003;-88
2024/01/09 06:43:38;;;;;;;8.15;3.97;;;;;;;-7.26;84.40;101026.44;12229191;19;20014;-86
2024/01/09 06:47:41;;;;;;;12.02;4.97;;;;;;;-7.25;84.20;101044.22;12216212;19;20006;-85
2024/01/09 06:51:44;;;;;;;12.90;4.50;;;;;;;-7.21;84.33;101042.19;12190144;19;20070;-87
2024/01/09 06:55:46;;;;;;;9.02;4.90;;;;;;;-7.23;83.83;101050.31;12209897;19;20010;-85
2024/01/09 06:59:53;;;;;;;9.48;4.00;;;;;;;-7.21;84.65;101055.59;12208235;19;20078;-85
2024/01/09 07:03:55;;;;;;;14.38;4.97;;;;;;;-7.23;84.74;101058.34;12182481;19;20011;-85
2024/01/09 07:07:57;;;;;;;11.13;4.78;;;;;;;-7.20;85.04;101065.31;12212759;19;20027;-85
2024/01/09 07:11:59;;;;;;;8.35;3.38;;;;;;;-7.21;85.41;101071.66;12216999;19;20010;-85
2024/01/09 07:16:04;;;;;;;7.18;3.38;;;;;;;-7.21;86.04;101059.13;12195791;19;20002;-84
2024/01/09 07:20:06;;;;;;;;;;;;;;;-7.21;86.40;101061.81;12216778;19;20007;-85
2024/01/09 07:24:08;;;;;;;5.68;3.17;;;;;;;-7.26;86.40;101053.22;12214212;19;19911;-86
2024/01/09 07:28:10;;;;;;;11.57;4.70;;;;;;;-7.27;86.27;101064.03;12196420;19;20006;-85
2024/01/09 07:32:13;;;;;;;11.45;4.75;;;;;;;-7.29;86.22;101063.28;12215051;19;20007;-85
2024/01/09 07:36:17;;;;;;;12.98;4.25;;;;;;;-7.27;85.40;101062.22;12216439;19;20023;-87
2024/01/09 07:40:18;;;;;;;6.05;3.25;;;;;;;-7.24;84.66;101047.75;12196884;19;20011;-84
2024/01/09 07:44:21;;;;;;;;;;;;;;;-7.17;84.37;101057.09;12213954;19;20017;-86
2024/01/09 07:48:23;;;;;;;6.10;3.07;;;;;;;-7.14;83.66;101052.41;12202645;19;20254;-85
2024/01/09 07:52:25;;;;;;;9.15;3.75;;;;;;;-7.09;83.98;101059.25;12214320;19;20039;-86
2024/01/09 07:56:33;;;;;;;12.60;4.10;;;;;;;-7.02;83.79;101071.25;12216485;19;20470;-85
2024/01/09 08:00:36;;;;;;;9.63;4.78;;;;;;;-6.96;83.63;101062.78;12194206;19;21230;-87
2024/01/09 08:04:40;;;;;;;16.70;7.97;;;;;;;-6.92;83.02;101062.47;12219125;19;20010;-85
2024/01/09 08:08:42;;;;;;;18.85;8.48;;;;;;;-6.88;82.24;101061.28;12216353;19;20815;-84
2024/01/09 08:12:49;;;;;;;16.73;8.80;;;;;;;-6.78;81.82;101053.47;12190689;19;20406;-84
2024/01/09 08:16:51;;;;;;;27.27;5.93;;;;;;;-6.72;81.42;101060.19;12213064;19;20017;-85
2024/01/09 08:20:53;;;;;;;8.60;5.40;;;;;;;-6.65;80.78;101059.66;12215288;19;20034;-86
2024/01/09 08:24:57;;;;;;;27.27;10.95;;;;;;;-6.55;80.75;101067.91;12194359;19;20078;-86
2024/01/09 08:29:03;;;;;;;38.92;16.73;;;;;;;-6.51;79.82;101063.22;12233302;19;20006;-86
2024/01/09 08:33:06;;;;;;;13.82;7.68;;;;;;;-6.46;79.05;101058.34;12215927;19;20066;-87
2024/01/09 08:37:08;;;;;;;18.30;9.02;;;;;;;-6.39;78.32;101064.13;12193475;19;20113;-85
2024/01/09 08:41:10;;;;;;;19.17;8.43;;;;;;;-6.32;77.88;101074.31;12214097;19;20006;-85
2024/01/09 08:45:16;;;;;;;19.70;9.35;;;;;;;-6.24;77.67;101068.41;12219594;19;20638;-84
2024/01/09 08:49:19;;;;;;;23.25;9.23;;;;;;;-6.09;77.67;101069.97;12218630;19;20042;-88
2024/01/09 08:53:24;;;;;;;17.25;8.20;;;;;;;-5.91;77.22;101065.06;12274940;19;20013;-88
2024/01/09 08:57:26;;;;;;;12.85;5.85;;;;;;;-5.77;76.27;101062.22;12249832;19;20026;-88
2024/01/09 09:01:35;;;;;;;11.32;4.78;;;;;;;-5.68;75.09;101059.78;12221940;19;20015;-84
2024/01/09 09:05:38;;;;;;;12.93;5.45;;;;;;;-5.52;75.35;101061.22;12225291;19;20011;-84
2024/01/09 09:09:42;;;;;;;12.32;5.60;;;;;;;-5.34;74.12;101068.88;12192356;19;20107;-84
2024/01/09 09:13:44;;;;;;;7.82;4.32;;;;;;;-5.22;73.25;101057.19;12211840;19;20079;-85
2024/01/09 09:17:46;;;;;;;8.32;4.15;;;;;;;-5.16;71.66;101056.72;12245053;19;20483;-89
2024/01/09 09:21:52;;;;;;;9.20;4.97;;;;;;;-5.02;70.45;101054.78;12254865;19;20022;-86
2024/01/09 09:25:54;;;;;;;9.80;4.57;;;;;;;-4.86;70.27;101048.09;12199101;19;20077;-86
2024/01/09 09:29:56;;;;;;;10.35;4.35;;;;;;;-4.69;69.50;101044.06;12215994;19;20026;-85
2024/01/09 09:33:58;;;;;;;9.95;3.95;;;;;;;-4.52;68.65;101056.19;12216474;19;20014;-86
2024/01/09 09:38:00;;;;;;;18.80;6.00;;;;;;;-4.33;68.50;101052.88;12189452;19;20017;-85
2024/01/09 09:42:03;;;;;;;12.20;5.72;;;;;;;-4.16;67.02;101052.38;12207945;19;20022;-84
2024/01/09 09:46:08;;;;;;;21.75;11.52;;;;;;;-3.99;65.80;101047.44;12208547;19;20050;-83
2024/01/09 09:50:13;;;;;;;14.88;7.50;;;;;;;-3.90;63.28;101055.66;12188428;19;20029;-84
2024/01/09 09:54:16;;;;;;;18.90;7.88;;;;;;;-3.63;64.16;101048.06;12208198;19;20019;-86
2024/01/09 09:58:19;;;;;;;11.95;4.88;;;;;;;-3.46;63.25;101039.44;12202007;19;20007;-85
2024/01/09 10:02:26;;;;;;;12.10;4.45;;;;;;;-3.24;62.41;101038.50;12205208;19;20007;-86
2024/01/09 10:06:29;;;;;;;10.23;4.78;;;;;;;-3.07;62.48;101028.94;12205790;19;20014;-83
2024/01/09 10:10:32;;;;;;;9.93;5.38;;;;;;;-2.89;61.53;101023.81;12183749;19;20082;-83
2024/01/09 10:14:35;;;;;;;10.70;5.13;;;;;;;-2.79;59.34;101017.50;12217235;19;20420;-84
2024/01/09 10:18:39;;;;;;;11.70;4.75;;;;;;;-2.65;59.14;101028.91;12206877;19;20031;-85
2024/01/09 10:22:43;;;;;;;6.80;3.25;;;;;;;-2.62;56.91;101021.41;12182868;19;20021;-85
2024/01/09 10:26:45;;;;;;;7.95;4.10;;;;;;;-2.56;55.90;101011.91;12202235;19;20023;-85
2024/01/09 10:30:47;;;;;;;13.40;4.78;;;;;;;-2.43;55.45;101011.69;12205197;19;20014;-84
2024/01/09 10:34:49;;;;;;;6.55;3.20;;;;;;;-2.32;55.83;101000.75;12182495;19;20098;-84
2024/01/09 10:38:51;;;;;;;14.00;5.00;;;;;;;-2.14;55.67;101003.66;12204503;19;20105;-85
2024/01/09 10:42:53;;;;;;;8.15;3.92;;;;;;;-1.97;55.66;100999.44;12209849;19;20018;-85
2024/01/09 10:46:59;;;;;;;8.32;3.53;;;;;;;-1.87;54.46;100993.06;12180642;19;20037;-86
2024/01/09 10:51:01;;;;;;;10.70;4.95;;;;;;;-1.76;53.26;100989.34;12202906;19;20014;-84
2024/01/09 10:55:05;;;;;;;8.13;4.40;;;;;;;-1.66;52.66;100986.69;12203804;19;20465;-85
2024/01/09 10:59:10;;;;;;;9.30;3.67;;;;;;;-1.61;51.39;100977.16;12182164;19;20002;-85
2024/01/09 11:03:12;;;;;;;9.73;3.20;;;;;;;-1.46;50.88;100971.28;12201125;19;20010;-85
2024/01/09 11:07:16;;;;;;;9.15;3.60;;;;;;;-1.30;51.39;100979.69;12179703;19;20473;-85
2024/01/09 11:11:21;;;;;;;10.50;3.95;;;;;;;-1.12;51.19;100960.84;12202442;19;20006;-85
2024/01/09 11:15:29;;;;;;;13.02;5.90;;;;;;;-0.97;50.75;100956.69;12202385;19;20070;-85
2024/01/09 11:19:31;;;;;;;14.57;5.72;;;;;;;-0.89;49.78;100964.06;12181514;19;20050;-85
2024/01/09 11:24:00;;;;;;;11.50;5.33;;;;;;;-0.77;49.02;100968.31;12199200;19;19999;-84
2024/01/09 11:28:07;;;;;;;16.88;5.45;;;;;;;-0.56;49.61;100956.41;12203411;19;20027;-85
2024/01/09 11:32:09;;;;;;;11.85;4.60;;;;;;;-0.53;48.59;100948.81;12181760;19;20019;-85
2024/01/09 11:36:20;;;;;;;10.00;4.25;;;;;;;-0.36;48.98;100941.72;12202099;19;20358;-85
2024/01/09 11:40:30;;;;;;;7.28;3.55;;;;;;;-0.26;48.43;100941.69;12190086;19;20075;-85
2024/01/09 11:44:31;;;;;;;10.20;4.30;;;;;;;-0.06;48.70;100934.28;12196607;19;20022;-84
2024/01/09 11:48:34;;;;;;;10.88;4.20;;;;;;;-0.01;47.43;100927.38;12216533;19;20011;-85
2024/01/09 11:52:39;;;;;;;6.50;2.90;;;;;;;0.20;47.01;100915.38;12217544;19;20453;-84
2024/01/09 11:56:41;;;;;;;12.55;4.57;;;;;;;0.57;46.99;100917.06;12223995;19;20737;-85
2024/01/09 12:00:44;;;;;;;14.13;6.43;;;;;;;0.78;46.53;100911.28;12219468;19;20006;-84
2024/01/09 12:04:48;;;;;;;17.05;5.70;;;;;;;1.23;45.75;100912.91;12201907;19;20027;-85
2024/01/09 12:08:52;;;;;;;12.33;4.43;;;;;;;1.57;43.14;100904.72;12224361;19;20116;-86
2024/01/09 12:13:01;;;;;;;11.95;5.00;;;;;;;2.34;46.12;100907.25;12215632;19;20074;-85
2024/01/09 12:17:37;;;;;;;6.65;4.22;;;;;;;2.70;42.51;100897.69;12195434;19;20356;-85
2024/01/09 12:21:40;;;;;;;9.98;5.18;;;;;;;3.20;43.15;100896.56;12215527;19;20035;-86
2024/01/09 12:25:44;;;;;;;13.53;6.57;;;;;;;3.29;42.63;100880.22;12193385;19;20113;-86
2024/01/09 12:29:46;;;;;;;17.17;8.15;;;;;;;3.09;40.02;100888.78;12221274;19;20007;-86
2024/01/09 12:33:48;;;;;;;8.53;5.27;;;;;;;3.16;38.33;100886.22;12216188;19;20585;-87
2024/01/09 12:37:53;;;;;;;9.93;4.32;;;;;;;3.49;39.88;100873.31;12190371;19;20171;-87
2024/01/09 12:42:05;;;;;;;12.27;4.93;;;;;;;4.06;40.08;100866.66;12216075;19;20022;-86
2024/01/09 12:46:07;;;;;;;13.57;7.47;;;;;;;4.57;40.13;100858.72;12207780;19;20030;-86
2024/01/09 12:50:09;;;;;;;9.13;4.93;;;;;;;4.67;40.20;100856.59;12211713;19;20007;-86
2024/01/09 12:54:17;;;;;;;10.50;4.68;;;;;;;3.92;38.72;100859.25;12211564;19;20015;-86
2024/01/09 12:58:19;;;;;;;7.63;4.22;;;;;;;3.28;38.59;100865.75;12192447;19;20021;-86
2024/01/09 13:02:21;;;;;;;7.75;4.22;;;;;;;2.72;39.26;100854.84;12211087;19;20003;-87
2024/01/09 13:06:23;;;;;;;7.73;3.70;;;;;;;2.55;40.02;100857.75;12207526;19;20018;-87
2024/01/09 13:10:25;;;;;;;6.63;4.00;;;;;;;2.40;39.64;100852.16;12190741;19;20466;-87
2024/01/09 13:14:27;;;;;;;9.85;2.90;;;;;;;2.42;40.49;100852.84;12209905;19;20022;-85
2024/01/09 13:18:29;;;;;;;24.67;9.02;;;;;;;2.31;39.76;100845.03;12207749;19;20018;-86
2024/01/09 13:22:31;;;;;;;31.42;12.23;;;;;;;2.23;39.59;100838.59;12185846;19;20014;-86
2024/01/09 13:26:37;;;;;;;12.93;5.82;;;;;;;2.17;39.00;100841.13;12209998;19;20031;-86
2024/01/09 13:30:40;;;;;;;14.52;6.30;;;;;;;2.00;38.00;100837.56;12208862;19;20007;-87
2024/01/09 13:34:52;;;;;;;11.65;6.25;;;;;;;1.90;38.71;100839.56;12188077;19;20010;-85
2024/01/09 13:38:54;;;;;;;6.05;4.18;;;;;;;1.81;38.79;100842.31;12208012;19;20801;-85
2024/01/09 13:42:55;;;;;;;6.50;3.40;;;;;;;1.71;38.25;100836.16;12208409;19;20374;-85
2024/01/09 13:46:58;;;;;;;9.40;4.13;;;;;;;1.59;37.91;100842.94;12187787;19;20010;-85
2024/01/09 13:51:01;;;;;;;8.02;4.28;;;;;;;1.55;38.24;100834.25;12234805;19;20275;-84
2024/01/09 13:55:09;;;;;;;7.88;4.20;;;;;;;1.53;38.48;100836.28;12237018;19;20015;-86
2024/01/09 13:59:10;;;;;;;8.30;3.50;;;;;;;1.46;37.73;100837.09;12187951;19;20011;-85
2024/01/09 14:03:13;;;;;;;7.37;4.03;;;;;;;1.44;38.00;100839.16;12206457;19;20007;-85
2024/01/09 14:07:15;;;;;;;7.18;3.50;;;;;;;1.42;37.98;100847.47;12201400;19;20047;-86
2024/01/09 14:11:16;;;;;;;6.90;3.57;;;;;;;1.39;38.52;100831.50;12210102;19;20094;-86
2024/01/09 14:15:19;;;;;;;8.90;4.00;;;;;;;1.38;37.90;100839.81;12207741;19;20006;-86
2024/01/09 14:19:20;;;;;;;6.40;3.40;;;;;;;1.34;37.09;100839.31;12192207;19;20014;-86
2024/01/09 14:23:26;;;;;;;8.02;4.28;;;;;;;1.31;37.84;100829.63;12209116;19;20664;-86
2024/01/09 14:27:28;;;;;;;6.43;2.97;;;;;;;1.27;37.20;100825.50;12208528;19;20459;-85
2024/01/09 14:31:30;;;;;;;6.53;3.15;;;;;;;1.29;38.56;100823.50;12191096;19;20288;-86
2024/01/09 14:35:33;;;;;;;7.07;3.23;;;;;;;1.25;38.42;100822.13;12211745;19;20878;-85
2024/01/09 14:39:36;;;;;;;6.28;3.38;;;;;;;1.20;38.43;100816.34;12208364;19;20359;-85
2024/01/09 14:43:38;;;;;;;6.40;3.17;;;;;;;1.12;38.04;100819.00;12191382;19;20053;-85
2024/01/09 14:47:43;;;;;;;8.45;3.00;;;;;;;1.10;38.39;100816.47;12209693;19;20525;-85
2024/01/09 14:51:47;;;;;;;5.97;2.33;;;;;;;1.05;37.75;100816.13;12206490;19;20035;-84
2024/01/09 14:55:49;;;;;;;6.03;3.13;;;;;;;1.03;38.03;100809.97;12188277;19;20172;-86
2024/01/09 14:59:50;;;;;;;11.77;4.97;;;;;;;0.98;38.73;100823.22;12209219;19;20018;-85
2024/01/09 15:03:52;;;;;;;6.05;2.88;;;;;;;0.87;38.20;100824.34;12207681;19;20011;-85
2024/01/09 15:07:56;;;;;;;6.10;3.58;;;;;;;0.80;38.65;100814.28;12187837;19;20027;-86
2024/01/09 15:11:58;;;;;;;8.23;3.10;;;;;;;0.70;38.79;100819.84;12208160;19;20015;-85
2024/01/09 15:16:02;;;;;;;8.15;3.35;;;;;;;0.62;39.11;100831.47;12213460;19;20035;-86
2024/01/09 15:20:08;;;;;;;7.32;3.35;;;;;;;0.44;39.04;100822.56;12209522;19;20014;-86
2024/01/09 15:24:13;;;;;;;7.18;2.75;;;;;;;0.29;39.73;100833.13;12239138;19;20049;-85
2024/01/09 15:28:19;;;;;;;6.38;2.90;;;;;;;0.14;40.00;100840.97;12214337;19;20007;-86
2024/01/09 15:32:21;;;;;;;7.53;3.30;;;;;;;-0.03;40.80;100847.25;12217264;19;20362;-85
2024/01/09 15:36:23;;;;;;;10.10;3.75;;;;;;;-0.22;41.08;100845.56;12216211;19;20038;-85
2024/01/09 15:40:25;;;;;;;7.50;3.20;;;;;;;-0.41;41.45;100849.28;12196320;19;20652;-85
2024/01/09 15:44:28;;;;;;;5.90;2.88;;;;;;;-0.61;42.36;100845.84;12213590;19;20038;-85
2024/01/09 15:48:29;;;;;;;7.28;3.13;;;;;;;-0.78;43.00;100842.09;12220882;19;20023;-86
2024/01/09 15:52:31;;;;;;;7.93;3.03;;;;;;;-0.94;43.08;100850.88;12193572;19;20014;-86
2024/01/09 15:56:33;;;;;;;6.20;2.33;;;;;;;-1.07;43.77;100855.78;12216960;19;20009;-85
2024/01/09 16:00:35;;;;;;;15.57;5.75;;;;;;;-1.24;43.99;100848.44;12214497;19;20474;-85
2024/01/09 16:04:42;;;;;;;17.77;6.77;;;;;;;-1.36;44.52;100861.28;12192194;19;20014;-84
2024/01/09 16:08:44;;;;;;;11.77;5.30;;;;;;;-1.47;44.53;100862.31;12212732;19;20015;-85
2024/01/09 16:12:46;;;;;;;35.25;15.60;;;;;;;-1.58;45.03;100867.03;12211035;19;20110;-85
2024/01/09 16:16:51;;;;;;;16.38;8.43;;;;;;;-1.68;45.29;100869.75;12189938;19;20098;-85
2024/01/09 16:20:53;;;;;;;28.75;12.98;;;;;;;-1.77;45.64;100867.91;12212211;19;20761;-87
2024/01/09 16:24:54;;;;;;;16.87;7.80;;;;;;;-1.86;45.73;100873.19;12212915;19;20010;-86
2024/01/09 16:28:56;;;;;;;22.63;8.73;;;;;;;-1.89;46.07;100869.91;12190602;19;20013;-85
2024/01/09 16:32:58;;;;;;;14.53;6.43;;;;;;;-1.97;46.72;100883.28;12210926;19;20006;-85
2024/01/09 16:37:00;;;;;;;13.70;6.47;;;;;;;-2.06;47.35;100882.28;12213045;19;20017;-84
2024/01/09 16:41:05;;;;;;;13.32;5.53;;;;;;;-2.15;47.84;100891.22;12190316;19;20330;-86
2024/01/09 16:45:09;;;;;;;13.77;6.40;;;;;;;-2.21;48.26;100891.81;12212787;19;20037;-87
2024/01/09 16:49:11;;;;;;;11.77;5.20;;;;;;;-2.28;48.65;100902.31;12189507;19;20040;-86
2024/01/09 16:53:13;;;;;;;10.07;4.20;;;;;;;-2.36;49.16;100897.59;12211312;19;20022;-84
2024/01/09 16:57:15;;;;;;;11.87;4.50;;;;;;;-2.42;49.37;100900.84;12214751;19;20604;-86
2024/01/09 17:01:25;;;;;;;12.17;5.00;;;;;;;-2.44;49.86;100894.78;12192892;19;20010;-84
2024/01/09 17:05:27;;;;;;;27.90;11.52;;;;;;;-2.54;50.47;100889.31;12215897;19;20402;-84
2024/01/09 17:09:30;;;;;;;15.77;7.20;;;;;;;-2.56;51.27;100898.56;12252592;19;20465;-85
2024/01/09 17:13:32;;;;;;;14.45;7.70;;;;;;;-2.60;51.40;100889.03;12204401;19;20003;-86
2024/01/09 17:17:34;;;;;;;14.80;5.50;;;;;;;-2.64;51.71;100890.31;12212672;19;20071;-85
2024/01/09 17:21:36;;;;;;;18.80;7.45;;;;;;;-2.69;51.94;100897.97;12210663;19;20014;-88
2024/01/09 17:25:38;;;;;;;19.73;7.47;;;;;;;-2.78;52.18;100905.88;12232683;19;20014;-85
2024/01/09 17:29:40;;;;;;;15.35;5.57;;;;;;;-2.84;52.74;100911.81;12216324;19;20397;-85
2024/01/09 17:33:43;;;;;;;41.08;15.35;;;;;;;-2.89;52.79;100913.22;12212538;19;20010;-87
2024/01/09 17:37:45;;;;;;;;;;;;;;;-2.92;53.47;100914.34;12190462;19;20023;-86
2024/01/09 17:41:47;;;;;;;20.98;8.70;;;;;;;-2.97;53.13;100911.22;12211031;19;20058;-86
2024/01/09 17:45:49;;;;;;;17.40;7.73;;;;;;;-3.05;53.68;100914.56;12210241;19;20015;-86
2024/01/09 17:49:51;;;;;;;71.87;28.37;;;;;;;-3.13;54.01;100908.16;12193121;19;20010;-86
2024/01/09 17:53:52;;;;;;;48.13;21.10;;;;;;;-3.22;54.76;100910.66;12216043;19;20015;-86
2024/01/09 17:57:54;;;;;;;23.43;10.47;;;;;;;-3.26;55.23;100919.16;12214483;19;20006;-85
2024/01/09 18:01:56;;;;;;;36.13;16.37;;;;;;;-3.32;55.66;100919.69;12190384;19;20006;-85
2024/01/09 18:05:58;;;;;;;30.23;13.20;;;;;;;-3.39;55.55;100919.38;12213433;19;20031;-85
2024/01/09 18:10:05;;;;;;;28.73;14.80;;;;;;;-3.49;56.87;100915.75;12214331;19;20086;-85
2024/01/09 18:14:07;;;;;;;21.55;10.05;;;;;;;-3.57;56.90;100916.44;12191026;19;20107;-84
2024/01/09 18:18:09;;;;;;;21.95;8.98;;;;;;;-3.62;57.54;100915.97;12214322;19;20082;-84
2024/01/09 18:22:11;;;;;;;17.20;6.53;;;;;;;-3.72;58.33;100918.59;12212771;19;20010;-84
2024/01/09 18:26:13;;;;;;;29.10;14.60;;;;;;;-3.80;58.49;100923.75;12193286;19;20011;-85
2024/01/09 18:30:15;;;;;;;14.07;5.63;;;;;;;-3.84;59.06;100918.75;12212802;19;20040;-84
2024/01/09 18:34:20;;;;;;;23.05;11.40;;;;;;;-3.87;58.75;100927.94;12189925;19;20240;-86